Time;durP1;ratioP1;P1;durP2;ratioP2;P2;SDS_P1;SDS_P2;PMS_P1;PMS_P2;Temp;Humidity;BMP_temperature;BMP_pressure;BME280_temperature;BME280_humidity;BME280_pressure;Samples;Min_cycle;Max_cycle;Signal;HPM_P1;HPM_P2
2022/09/05 00:02:01;;;;;;;1.50;1.40;;;21.60;57.80;;;;;;5074379;28;20059;-28
2022/09/05 00:04:32;;;;;;;2.17;1.67;;;21.60;57.90;;;;;;5074597;28;20029;-30
2022/09/05 00:07:06;;;;;;;1.40;1.20;;;21.50;58.00;;;;;;5073063;28;20029;-27
2022/09/05 00:09:40;;;;;;;;;;;21.50;58.20;;;;;;5074728;28;20032;-27
2022/09/05 00:12:09;;;;;;;1.10;1.05;;;21.50;58.00;;;;;;5074336;28;19974;-27
2022/09/05 00:15:01;;;;;;;2.08;1.75;;;21.50;58.20;;;;;;5073354;28;20101;-27
2022/09/05 00:18:06;;;;;;;1.52;1.40;;;21.40;58.40;;;;;;5074478;28;20565;-28
2022/09/05 00:20:40;;;;;;;2.88;1.38;;;21.50;58.50;;;;;;5073891;28;20033;-28
2022/09/05 00:23:11;;;;;;;2.97;1.40;;;21.40;58.60;;;;;;5072830;28;20131;-27
2022/09/05 00:25:50;;;;;;;2.35;1.40;;;21.40;58.60;;;;;;5074214;28;20032;-30
2022/09/05 00:28:31;;;;;;;1.55;1.40;;;21.40;58.80;;;;;;5073985;28;20491;-26
2022/09/05 00:31:03;;;;;;;1.45;1.35;;;21.40;59.00;;;;;;5074290;28;20535;-26
2022/09/05 00:33:41;;;;;;;1.60;1.50;;;21.40;59.10;;;;;;5074187;28;20028;-29
2022/09/05 00:36:27;;;;;;;2.03;1.30;;;21.30;59.20;;;;;;5073987;28;20121;-29
2022/09/05 00:39:06;;;;;;;2.10;1.55;;;21.40;59.40;;;;;;5074027;28;20164;-27
2022/09/05 00:41:33;;;;;;;2.78;1.70;;;21.30;59.50;;;;;;5073633;28;20037;-28
2022/09/05 00:44:00;;;;;;;1.80;1.52;;;21.30;59.50;;;;;;5073704;28;20020;-28
2022/09/05 00:46:39;;;;;;;1.95;1.50;;;21.30;59.60;;;;;;5073663;28;20052;-27
2022/09/05 00:49:21;;;;;;;1.75;1.60;;;21.30;59.70;;;;;;5073732;28;20048;-29
2022/09/05 00:51:59;;;;;;;2.38;1.52;;;21.30;59.90;;;;;;5073685;28;20485;-26
2022/09/05 00:54:55;;;;;;;1.73;1.60;;;21.30;60.00;;;;;;5073446;28;20036;-31
2022/09/05 00:57:40;;;;;;;2.40;1.73;;;21.20;60.00;;;;;;5073363;28;20044;-28
2022/09/05 01:00:14;;;;;;;2.63;1.73;;;21.20;60.10;;;;;;5073523;28;20064;-30
2022/09/05 01:03:08;;;;;;;3.22;1.67;;;21.20;60.30;;;;;;5073312;28;20029;-27
2022/09/05 01:05:59;;;;;;;3.25;1.83;;;21.20;60.50;;;;;;5073394;28;20044;-27
2022/09/05 01:09:00;;;;;;;1.83;1.60;;;21.20;60.70;;;;;;5073118;28;20194;-29
2022/09/05 01:11:41;;;;;;;2.88;1.55;;;21.10;60.70;;;;;;5072802;28;20048;-27
2022/09/05 01:14:36;;;;;;;2.95;1.80;;;21.10;60.70;;;;;;5073208;28;20460;-28
2022/09/05 01:17:23;;;;;;;2.08;1.88;;;21.20;61.00;;;;;;5073298;28;20021;-31
2022/09/05 01:20:30;;;;;;;2.42;2.00;;;21.20;61.20;;;;;;5072965;28;20372;-27
2022/09/05 01:23:23;;;;;;;2.60;2.08;;;21.10;61.20;;;;;;5072867;28;20044;-32
2022/09/05 01:25:49;;;;;;;2.00;1.90;;;21.10;61.30;;;;;;5071295;28;20474;-27
2022/09/05 01:28:41;;;;;;;4.10;2.00;;;21.10;61.30;;;;;;5072833;28;20028;-28
2022/09/05 01:31:34;;;;;;;2.70;2.28;;;21.10;61.50;;;;;;5072639;28;20029;-29
2022/09/05 01:34:36;;;;;;;1.98;1.83;;;21.10;61.70;;;;;;5073131;28;20126;-27
2022/09/05 01:37:09;;;;;;;2.88;2.10;;;21.10;61.70;;;;;;5073223;28;20029;-26
2022/09/05 01:39:49;;;;;;;4.55;2.25;;;21.00;61.60;;;;;;5073191;28;20487;-26
2022/09/05 01:42:31;;;;;;;3.88;2.10;;;21.10;61.90;;;;;;5072636;28;20079;-29
2022/09/05 01:45:09;;;;;;;2.60;2.10;;;21.10;62.10;;;;;;5072598;28;20032;-27
2022/09/05 01:47:53;;;;;;;2.30;1.85;;;21.00;62.10;;;;;;5072536;28;20357;-28
2022/09/05 01:50:56;;;;;;;2.28;2.05;;;21.00;62.30;;;;;;5072713;28;20506;-27
2022/09/05 01:53:40;;;;;;;3.03;2.28;;;21.00;62.40;;;;;;5072838;28;20099;-27
2022/09/05 01:56:34;;;;;;;2.25;2.05;;;20.90;62.50;;;;;;5072449;28;20028;-36
2022/09/05 01:59:00;;;;;;;3.80;2.40;;;20.90;62.70;;;;;;5072431;28;20024;-28
2022/09/05 02:01:54;;;;;;;2.20;2.00;;;20.80;62.70;;;;;;5072319;28;20111;-27
2022/09/05 02:04:32;;;;;;;2.53;2.30;;;20.80;62.90;;;;;;5072342;28;20048;-27
2022/09/05 02:07:15;;;;;;;3.83;2.58;;;20.80;63.10;;;;;;5072448;28;20025;-31
2022/09/05 02:10:26;;;;;;;3.20;2.90;;;20.80;63.10;;;;;;5072550;28;20361;-29
2022/09/05 02:13:11;;;;;;;2.97;2.45;;;20.70;63.40;;;;;;5071049;28;20035;-33
2022/09/05 02:16:31;;;;;;;3.47;2.60;;;20.70;63.50;;;;;;5072316;28;20043;-27
2022/09/05 02:19:09;;;;;;;3.03;2.72;;;20.60;63.60;;;;;;5069954;28;20024;-28
2022/09/05 02:21:41;;;;;;;3.72;2.90;;;20.60;63.80;;;;;;5072325;28;20025;-27
2022/09/05 02:24:21;;;;;;;3.90;2.83;;;20.60;63.90;;;;;;5072411;28;20016;-28
2022/09/05 02:27:26;;;;;;;4.03;2.72;;;20.50;64.00;;;;;;5072243;28;20108;-27
2022/09/05 02:29:59;;;;;;;2.60;2.40;;;20.60;64.10;;;;;;5072429;28;20032;-27
2022/09/05 02:32:43;;;;;;;2.83;2.60;;;20.50;64.10;;;;;;5072099;28;20024;-28
2022/09/05 02:35:08;;;;;;;3.33;2.90;;;20.50;64.30;;;;;;5072296;28;20120;-28
2022/09/05 02:37:38;;;;;;;3.35;2.92;;;20.40;64.30;;;;;;5072564;28;20052;-27
2022/09/05 02:40:24;;;;;;;3.47;2.70;;;20.50;64.50;;;;;;5076178;28;20024;-27
2022/09/05 02:43:20;;;;;;;3.03;2.72;;;20.40;64.50;;;;;;5075031;28;20340;-28
2022/09/05 02:46:04;;;;;;;3.35;3.05;;;20.50;64.70;;;;;;5060353;28;20044;-27
2022/09/05 02:48:51;;;;;;;4.55;3.20;;;20.40;64.60;;;;;;5076196;28;20051;-27
2022/09/05 02:51:47;;;;;;;3.63;3.00;;;20.40;64.80;;;;;;5075774;28;20024;-27
2022/09/05 02:54:28;;;;;;;3.72;2.85;;;20.40;64.90;;;;;;5075824;28;20021;-35
2022/09/05 02:57:19;;;;;;;3.53;2.95;;;20.40;64.90;;;;;;5076552;28;20531;-30
2022/09/05 03:00:04;;;;;;;2.95;2.65;;;20.40;65.00;;;;;;5076093;28;20492;-29
2022/09/05 03:02:45;;;;;;;3.80;3.10;;;20.30;64.90;;;;;;5075947;28;20024;-29
2022/09/05 03:06:07;;;;;;;3.78;3.13;;;20.40;65.10;;;;;;5075842;28;20020;-28
2022/09/05 03:08:49;;;;;;;3.83;3.38;;;20.40;65.20;;;;;;5073269;28;20032;-28
2022/09/05 03:11:52;;;;;;;3.20;2.95;;;20.30;65.10;;;;;;5073395;28;20035;-28
2022/09/05 03:14:37;;;;;;;5.60;3.47;;;20.30;65.30;;;;;;5075114;28;20036;-30
2022/09/05 03:17:08;;;;;;;4.22;3.28;;;20.30;65.20;;;;;;5075407;28;20116;-29
2022/09/05 03:19:54;;;;;;;4.40;3.10;;;20.30;65.30;;;;;;5075677;28;20472;-27
2022/09/05 03:22:49;;;;;;;6.70;3.50;;;20.30;65.50;;;;;;5075113;28;20028;-27
2022/09/05 03:25:33;;;;;;;4.30;3.60;;;20.30;65.60;;;;;;5074244;28;20067;-28
2022/09/05 03:28:36;;;;;;;3.40;3.08;;;20.20;65.60;;;;;;5075414;28;20031;-34
2022/09/05 03:31:37;;;;;;;4.63;3.40;;;20.20;65.80;;;;;;5075267;28;20499;-29
2022/09/05 03:34:24;;;;;;;5.60;3.50;;;20.20;65.80;;;;;;5075282;28;20028;-27
2022/09/05 03:37:12;;;;;;;4.90;3.75;;;20.20;65.80;;;;;;5075337;28;20499;-29
2022/09/05 03:39:56;;;;;;;3.75;3.40;;;20.10;65.90;;;;;;5075020;28;20029;-28
2022/09/05 03:42:45;;;;;;;3.63;3.33;;;20.10;66.00;;;;;;5074897;28;20103;-28
2022/09/05 03:45:35;;;;;;;4.85;3.65;;;20.10;66.10;;;;;;5074802;28;20427;-30
2022/09/05 03:48:16;;;;;;;3.90;3.47;;;20.10;66.20;;;;;;5074832;28;20510;-29
2022/09/05 03:50:48;;;;;;;4.43;3.30;;;20.10;66.30;;;;;;5075205;28;20048;-28
2022/09/05 03:53:48;;;;;;;5.35;4.00;;;20.10;66.30;;;;;;5073363;28;20028;-28
2022/09/05 03:56:37;;;;;;;4.03;3.42;;;20.10;66.40;;;;;;5074627;28;20051;-27
2022/09/05 03:59:20;;;;;;;3.58;3.20;;;20.00;66.40;;;;;;5074712;28;20495;-29
2022/09/05 04:01:47;;;;;;;;;;;20.00;66.60;;;;;;5074956;28;20036;-32
2022/09/05 04:04:34;;;;;;;4.45;3.63;;;19.90;66.40;;;;;;5074897;28;20447;-27
2022/09/05 04:07:05;;;;;;;4.93;3.60;;;19.90;66.70;;;;;;5074441;28;20078;-32
2022/09/05 04:10:19;;;;;;;4.88;3.60;;;19.90;66.80;;;;;;5074370;28;20016;-29
2022/09/05 04:12:55;;;;;;;4.72;3.63;;;19.80;67.00;;;;;;5072213;28;20060;-29
2022/09/05 04:15:20;;;;;;;4.93;3.70;;;19.80;67.00;;;;;;5072053;28;20017;-28
2022/09/05 04:17:51;;;;;;;4.72;3.90;;;19.80;67.10;;;;;;5073313;28;20116;-27
2022/09/05 04:20:42;;;;;;;4.70;3.95;;;19.70;67.20;;;;;;5074179;28;20028;-27
2022/09/05 04:23:17;;;;;;;4.63;3.97;;;19.70;67.40;;;;;;5074435;28;20491;-27
2022/09/05 04:26:01;;;;;;;5.45;4.10;;;19.80;67.50;;;;;;5074357;28;20115;-31
2022/09/05 04:28:41;;;;;;;5.57;4.07;;;19.70;67.50;;;;;;5074314;28;20017;-26
2022/09/05 04:31:38;;;;;;;4.57;4.13;;;19.70;67.60;;;;;;5074006;28;20035;-26
2022/09/05 04:34:25;;;;;;;5.57;4.15;;;19.70;67.70;;;;;;5073974;28;20085;-26
2022/09/05 04:37:06;;;;;;;5.95;3.97;;;19.70;67.80;;;;;;5074621;28;20044;-27
2022/09/05 04:39:33;;;;;;;5.45;4.13;;;19.70;67.90;;;;;;5073771;28;20059;-29
2022/09/05 04:42:14;;;;;;;8.63;4.65;;;19.60;67.80;;;;;;5074050;28;20028;-27
2022/09/05 04:44:46;;;;;;;6.28;4.68;;;19.60;68.00;;;;;;5072364;28;20048;-26
2022/09/05 04:47:18;;;;;;;5.72;4.35;;;19.60;68.00;;;;;;5073530;28;20053;-28
2022/09/05 04:49:51;;;;;;;5.67;4.60;;;19.60;68.10;;;;;;5073652;28;20031;-29
2022/09/05 04:52:32;;;;;;;6.43;3.90;;;19.60;68.20;;;;;;5073993;28;20036;-27
2022/09/05 04:55:06;;;;;;;6.13;4.65;;;19.60;68.20;;;;;;5073785;28;20449;-28
2022/09/05 04:57:50;;;;;;;7.90;4.55;;;19.60;69.00;;;;;;5073664;28;20103;-27
2022/09/05 05:00:24;;;;;;;;;;;19.60;68.40;;;;;;5073322;28;20030;-29
2022/09/05 05:03:03;;;;;;;6.40;4.28;;;19.50;68.20;;;;;;5073591;28;19909;-26
2022/09/05 05:05:54;;;;;;;6.07;4.00;;;19.50;68.30;;;;;;5073731;28;20016;-27
2022/09/05 05:09:00;;;;;;;5.65;4.13;;;19.50;68.50;;;;;;5073111;28;20043;-28
2022/09/05 05:11:40;;;;;;;5.43;4.15;;;19.50;68.60;;;;;;5073404;28;20097;-27
2022/09/05 05:14:20;;;;;;;5.47;4.20;;;19.50;68.50;;;;;;5073713;28;20036;-27
2022/09/05 05:17:17;;;;;;;6.32;4.78;;;19.40;68.60;;;;;;5072944;28;20078;-28
2022/09/05 05:19:51;;;;;;;7.15;5.22;;;19.40;68.70;;;;;;5072793;28;20028;-28
2022/09/05 05:22:17;;;;;;;5.28;4.78;;;19.40;68.90;;;;;;5072878;28;20047;-29
2022/09/05 05:24:55;;;;;;;5.97;4.80;;;19.40;68.90;;;;;;5073040;28;20025;-30
2022/09/05 05:27:32;;;;;;;5.53;4.38;;;19.40;69.00;;;;;;5072926;28;20036;-31
2022/09/05 05:30:05;;;;;;;5.38;4.47;;;19.40;69.00;;;;;;5072935;28;20561;-30
2022/09/05 05:32:40;;;;;;;5.40;4.68;;;19.50;69.10;;;;;;5072967;28;20511;-32
2022/09/05 05:35:14;;;;;;;6.55;4.18;;;19.50;69.10;;;;;;5072835;28;20024;-31
2022/09/05 05:37:44;;;;;;;5.70;4.60;;;19.50;69.10;;;;;;5072635;28;20032;-28
2022/09/05 05:40:18;;;;;;;4.95;4.38;;;19.50;69.00;;;;;;5072778;28;20056;-28
2022/09/05 05:42:45;;;;;;;5.75;4.93;;;19.60;69.10;;;;;;5072669;28;20488;-27
2022/09/05 05:45:29;;;;;;;6.35;4.65;;;19.60;69.00;;;;;;5072758;28;20052;-29
2022/09/05 05:48:01;;;;;;;7.18;5.22;;;19.60;69.10;;;;;;5072878;28;20029;-28
2022/09/05 05:51:05;;;;;;;8.02;5.00;;;19.70;69.10;;;;;;5072701;28;20069;-28
2022/09/05 05:54:03;;;;;;;6.65;5.20;;;19.70;69.10;;;;;;5072265;28;20024;-27
2022/09/05 05:56:35;;;;;;;8.07;5.47;;;19.70;69.10;;;;;;5072445;28;20472;-31
2022/09/05 05:59:34;;;;;;;7.10;5.57;;;19.80;69.10;;;;;;5072341;28;20031;-29
2022/09/05 06:02:24;;;;;;;6.43;5.43;;;19.80;69.10;;;;;;5072226;28;20529;-31
2022/09/05 06:05:32;;;;;;;5.65;4.90;;;19.80;69.00;;;;;;5072521;28;20522;-27
2022/09/05 06:08:38;;;;;;;6.50;5.25;;;19.90;69.10;;;;;;5071075;28;20114;-28
2022/09/05 06:11:03;;;;;;;6.82;5.25;;;19.90;68.90;;;;;;5072728;28;20025;-29
2022/09/05 06:14:13;;;;;;;7.43;5.93;;;20.00;68.80;;;;;;5071425;28;20028;-28
2022/09/05 06:17:11;;;;;;;9.25;5.68;;;20.10;68.90;;;;;;5072005;28;20068;-34
2022/09/05 06:19:36;;;;;;;5.97;5.38;;;20.10;68.80;;;;;;5072535;28;20028;-30
2022/09/05 06:22:45;;;;;;;9.60;5.95;;;20.10;69.30;;;;;;5072341;28;20032;-28
2022/09/05 06:25:25;;;;;;;6.80;5.55;;;20.20;68.80;;;;;;5072223;28;20575;-29
2022/09/05 06:28:03;;;;;;;6.97;5.28;;;20.20;68.70;;;;;;5072121;28;20150;-30
2022/09/05 06:30:46;;;;;;;6.28;5.30;;;20.30;68.70;;;;;;5072507;28;20044;-30
2022/09/05 06:33:39;;;;;;;6.78;5.00;;;20.30;68.70;;;;;;5072431;28;20483;-31
2022/09/05 06:36:48;;;;;;;6.07;5.00;;;20.40;68.60;;;;;;5072055;28;20032;-32
2022/09/05 06:39:34;;;;;;;7.65;5.53;;;20.50;69.20;;;;;;5072066;28;20024;-28
2022/09/05 06:42:14;;;;;;;6.53;5.18;;;20.50;68.40;;;;;;5066588;28;20037;-28
2022/09/05 06:44:51;;;;;;;6.88;5.15;;;20.50;68.30;;;;;;5072117;28;20379;-29
2022/09/05 06:47:19;;;;;;;7.35;5.47;;;20.60;68.90;;;;;;5072341;28;20047;-27
2022/09/05 06:49:54;;;;;;;6.03;5.35;;;20.70;68.30;;;;;;5072249;28;20450;-27
2022/09/05 06:52:30;;;;;;;7.13;5.40;;;20.70;68.20;;;;;;5072237;28;20074;-27
2022/09/05 06:55:26;;;;;;;6.25;5.07;;;20.80;68.20;;;;;;5072293;28;20032;-28
2022/09/05 06:58:13;;;;;;;7.95;5.18;;;20.80;68.10;;;;;;5072034;28;20051;-33
2022/09/05 07:00:47;;;;;;;8.57;4.72;;;20.90;68.00;;;;;;5071948;28;20028;-33
2022/09/05 07:03:21;;;;;;;7.20;4.55;;;20.90;67.90;;;;;;5072116;28;20028;-30
2022/09/05 07:06:05;;;;;;;6.68;5.10;;;21.00;67.90;;;;;;5071890;28;20025;-34
2022/09/05 07:08:30;;;;;;;;;;;21.10;67.90;;;;;;5072567;28;20082;-31
2022/09/05 07:10:58;;;;;;;5.60;4.35;;;21.10;67.60;;;;;;5072088;28;20314;-34
2022/09/05 07:13:32;;;;;;;7.22;4.95;;;21.20;67.50;;;;;;5071783;28;20089;-33
2022/09/05 07:16:09;;;;;;;6.93;5.10;;;21.30;67.40;;;;;;5072105;28;20031;-30
2022/09/05 07:19:00;;;;;;;5.05;4.30;;;21.40;67.40;;;;;;5072107;28;20489;-28
2022/09/05 07:21:49;;;;;;;5.32;4.55;;;21.50;67.30;;;;;;5072066;28;20493;-29
2022/09/05 07:24:18;;;;;;;5.43;4.40;;;21.50;67.10;;;;;;5072043;28;20076;-26
2022/09/05 07:26:46;;;;;;;5.72;4.40;;;21.60;67.00;;;;;;5075656;28;20415;-27
2022/09/05 07:29:18;;;;;;;6.28;4.75;;;21.70;66.90;;;;;;5075584;28;20016;-28
2022/09/05 07:31:49;;;;;;;5.00;4.28;;;21.70;66.80;;;;;;5075587;28;20047;-34
2022/09/05 07:34:45;;;;;;;5.03;4.53;;;21.80;66.70;;;;;;5073969;28;20107;-39
2022/09/05 07:37:21;;;;;;;6.47;4.72;;;21.90;66.50;;;;;;5075079;28;20131;-31
2022/09/05 07:39:58;;;;;;;4.68;4.28;;;22.00;66.60;;;;;;5075061;28;20107;-29
2022/09/05 07:42:38;;;;;;;4.57;4.13;;;22.00;66.40;;;;;;5075104;28;20051;-29
2022/09/05 07:45:12;;;;;;;5.57;4.25;;;22.10;66.30;;;;;;5075209;28;20424;-28
2022/09/05 07:48:05;;;;;;;4.40;3.85;;;22.20;66.20;;;;;;5074856;28;20076;-29
2022/09/05 07:50:43;;;;;;;4.88;4.30;;;22.20;66.00;;;;;;5075204;28;20024;-29
2022/09/05 07:53:10;;;;;;;5.22;4.35;;;22.30;65.80;;;;;;5074847;28;20439;-32
2022/09/05 07:55:36;;;;;;;7.28;4.10;;;22.30;65.70;;;;;;5075347;28;20181;-29
2022/09/05 07:58:06;;;;;;;7.18;4.20;;;22.40;65.60;;;;;;5075139;28;20425;-30
2022/09/05 08:00:33;;;;;;;4.38;3.90;;;22.50;65.50;;;;;;5074683;28;20021;-30
2022/09/05 08:03:13;;;;;;;4.80;4.30;;;22.50;65.30;;;;;;5075012;28;20074;-33
2022/09/05 08:05:47;;;;;;;4.75;4.20;;;22.60;65.20;;;;;;5074936;28;20013;-28
2022/09/05 08:08:18;;;;;;;5.50;4.60;;;22.70;65.00;;;;;;5075059;28;20020;-33
2022/09/05 08:10:49;;;;;;;5.00;4.43;;;22.70;64.80;;;;;;5074708;28;20052;-29
2022/09/05 08:13:19;;;;;;;6.97;3.88;;;22.80;64.70;;;;;;5074457;28;20215;-27
2022/09/05 08:15:52;;;;;;;7.65;3.95;;;22.80;64.50;;;;;;5074387;28;20071;-29
2022/09/05 08:18:39;;;;;;;;;;;22.90;64.40;;;;;;5074800;28;20100;-30
2022/09/05 08:21:20;;;;;;;4.30;3.88;;;23.00;64.30;;;;;;5074640;28;19908;-28
2022/09/05 08:23:58;;;;;;;4.20;3.80;;;23.00;64.10;;;;;;5074114;28;20028;-31
2022/09/05 08:26:47;;;;;;;4.57;4.18;;;23.10;64.00;;;;;;5074926;28;20158;-28
2022/09/05 08:29:40;;;;;;;4.65;3.75;;;23.10;63.90;;;;;;5074221;28;20143;-26
2022/09/05 08:32:11;;;;;;;4.47;3.85;;;23.20;63.70;;;;;;5074448;28;20027;-26
2022/09/05 08:35:04;;;;;;;5.72;3.70;;;23.30;63.50;;;;;;5073909;28;20025;-37
2022/09/05 08:37:31;;;;;;;5.32;4.22;;;23.40;63.30;;;;;;5073846;28;20052;-27
2022/09/05 08:40:16;;;;;;;5.13;4.63;;;23.50;63.20;;;;;;5074245;28;20096;-29
2022/09/05 08:42:54;;;;;;;4.70;4.20;;;23.50;63.00;;;;;;5073815;28;20430;-28
2022/09/05 08:45:34;;;;;;;7.35;3.88;;;23.60;62.90;;;;;;5073444;28;20052;-27
2022/09/05 08:48:32;;;;;;;4.65;4.18;;;23.70;62.70;;;;;;5073694;28;20090;-29
2022/09/05 08:51:09;;;;;;;4.35;3.75;;;23.80;62.50;;;;;;5073846;28;20024;-27
2022/09/05 08:54:02;;;;;;;4.90;4.13;;;23.80;62.30;;;;;;5074077;28;20029;-28
2022/09/05 08:56:46;;;;;;;4.60;3.57;;;24.00;62.10;;;;;;5073884;28;20024;-30
2022/09/05 08:59:18;;;;;;;6.10;3.63;;;24.10;61.90;;;;;;5073743;28;20020;-28
2022/09/05 09:02:10;;;;;;;5.35;3.50;;;24.10;61.60;;;;;;5073435;28;20036;-29
2022/09/05 09:05:06;;;;;;;5.97;3.25;;;24.30;61.40;;;;;;5073197;28;20033;-31
2022/09/05 09:07:37;;;;;;;3.53;3.13;;;24.40;61.10;;;;;;5073411;28;20095;-29
2022/09/05 09:10:27;;;;;;;6.05;2.97;;;24.50;60.90;;;;;;5073333;28;20016;-27
2022/09/05 09:12:55;;;;;;;6.55;2.70;;;24.60;60.70;;;;;;5073546;28;20032;-29
2022/09/05 09:15:38;;;;;;;4.10;2.85;;;24.70;60.40;;;;;;5073351;28;20032;-36
2022/09/05 09:18:18;;;;;;;3.45;2.53;;;24.80;60.10;;;;;;5073301;28;20411;-28
2022/09/05 09:20:52;;;;;;;1.88;1.70;;;24.90;59.80;;;;;;5073222;28;20025;-33
2022/09/05 09:23:20;;;;;;;2.63;1.63;;;25.00;59.30;;;;;;5073199;28;20103;-29
2022/09/05 09:26:06;;;;;;;4.10;2.08;;;25.10;58.80;;;;;;5072010;28;20074;-27
2022/09/05 09:29:01;;;;;;;3.25;2.13;;;25.20;58.30;;;;;;5073115;28;20063;-33
2022/09/05 09:31:37;;;;;;;4.25;2.00;;;25.30;58.70;;;;;;5073470;28;20422;-29
2022/09/05 09:34:31;;;;;;;4.65;1.80;;;25.40;57.80;;;;;;5073087;28;20024;-28
2022/09/05 09:37:15;;;;;;;3.90;2.10;;;25.50;57.60;;;;;;5072945;28;20086;-28
2022/09/05 09:43:26;;;;;;;2.58;1.60;;;25.60;57.00;;;;;;5073025;28;20094;-28
2022/09/05 09:46:20;;;;;;;2.10;1.58;;;25.80;56.80;;;;;;5072704;28;20052;-29
2022/09/05 09:48:52;;;;;;;3.33;1.60;;;25.90;56.40;;;;;;5072684;28;20051;-32
2022/09/05 09:51:34;;;;;;;2.47;1.60;;;26.00;56.10;;;;;;5072837;28;20079;-27
2022/09/05 09:54:07;;;;;;;1.70;1.37;;;26.00;55.70;;;;;;5073113;28;20367;-33
2022/09/05 09:56:54;;;;;;;2.08;1.60;;;26.10;55.70;;;;;;5072537;28;20021;-30
2022/09/05 09:59:42;;;;;;;2.15;1.27;;;26.20;55.20;;;;;;5072343;28;20444;-31
2022/09/05 10:02:33;;;;;;;1.58;1.30;;;26.20;54.60;;;;;;5072915;28;20114;-30
2022/09/05 10:05:10;;;;;;;2.28;1.20;;;26.30;54.30;;;;;;5072556;28;20439;-31
2022/09/05 10:07:42;;;;;;;2.17;1.05;;;26.40;53.60;;;;;;5072577;28;20017;-33
2022/09/05 10:10:40;;;;;;;2.28;1.30;;;26.50;53.30;;;;;;5072369;28;20070;-34
2022/09/05 10:13:27;;;;;;;0.80;0.80;;;26.60;52.70;;;;;;5071000;28;20535;-27
2022/09/05 10:16:30;;;;;;;1.27;0.90;;;26.70;52.40;;;;;;5072284;28;20540;-29
2022/09/05 10:19:21;;;;;;;2.53;0.90;;;26.70;51.80;;;;;;5072158;28;20440;-30
2022/09/05 10:22:13;;;;;;;1.13;1.02;;;26.80;51.30;;;;;;5072309;28;20032;-30
2022/09/05 10:25:08;;;;;;;1.08;1.00;;;26.80;50.60;;;;;;5071929;28;20422;-26
2022/09/05 10:27:41;;;;;;;1.60;0.80;;;26.90;50.30;;;;;;5071943;28;20029;-31
2022/09/05 10:30:08;;;;;;;;;;;27.00;50.00;;;;;;5072313;28;20025;-33
2022/09/05 10:33:09;;;;;;;1.17;1.08;;;27.00;50.10;;;;;;5072466;28;19905;-31
2022/09/05 10:35:38;;;;;;;1.02;0.93;;;27.00;49.80;;;;;;5071788;28;20032;-28
2022/09/05 10:38:17;;;;;;;1.42;1.02;;;27.10;49.60;;;;;;5071922;28;20031;-28
2022/09/05 10:40:46;;;;;;;1.75;1.00;;;27.20;48.90;;;;;;5072142;28;20032;-32
2022/09/05 10:43:27;;;;;;;1.02;0.80;;;27.30;48.80;;;;;;5071828;28;20024;-33
2022/09/05 10:45:55;;;;;;;1.52;0.85;;;27.30;48.50;;;;;;5071889;28;20070;-32
2022/09/05 10:48:54;;;;;;;1.25;0.80;;;27.30;48.30;;;;;;5071772;28;20043;-29
2022/09/05 10:51:41;;;;;;;0.93;0.80;;;27.40;47.90;;;;;;5066071;28;20115;-28
2022/09/05 10:54:28;;;;;;;2.10;1.20;;;27.50;47.50;;;;;;5071853;28;20040;-30
2022/09/05 10:57:26;;;;;;;0.70;0.70;;;27.50;47.20;;;;;;5072029;28;20024;-36
2022/09/05 11:00:03;;;;;;;1.02;0.93;;;27.60;46.80;;;;;;5074338;28;20029;-29
2022/09/05 11:02:31;;;;;;;1.00;0.80;;;27.70;46.40;;;;;;5074293;28;20120;-26
2022/09/05 11:05:21;;;;;;;0.70;0.70;;;27.70;46.00;;;;;;5075597;28;20032;-28
2022/09/05 11:08:10;;;;;;;1.15;0.90;;;27.70;45.80;;;;;;5075757;28;20025;-27
2022/09/05 11:10:54;;;;;;;1.02;0.85;;;27.80;45.40;;;;;;5075476;28;20024;-27
2022/09/05 11:13:42;;;;;;;1.13;0.80;;;27.90;45.30;;;;;;5075567;28;20031;-27
2022/09/05 11:16:22;;;;;;;0.70;0.68;;;27.90;44.70;;;;;;5075380;28;20028;-27
2022/09/05 11:18:58;;;;;;;1.33;0.88;;;28.00;44.50;;;;;;5075292;28;20127;-27
2022/09/05 11:21:33;;;;;;;0.80;0.80;;;28.00;44.20;;;;;;5075122;28;20090;-28
2022/09/05 11:24:21;;;;;;;0.90;0.90;;;28.10;44.00;;;;;;5075125;28;20029;-28
2022/09/05 11:27:02;;;;;;;0.90;0.90;;;28.10;43.80;;;;;;5075391;28;20036;-28
2022/09/05 11:29:36;;;;;;;1.60;0.95;;;28.20;43.70;;;;;;5075234;28;20017;-30
2022/09/05 11:32:08;;;;;;;0.90;0.70;;;28.20;43.50;;;;;;5075149;28;20016;-30
2022/09/05 11:35:11;;;;;;;0.80;0.77;;;28.30;43.40;;;;;;5074137;28;20067;-28
2022/09/05 11:37:57;;;;;;;0.77;0.77;;;28.40;43.20;;;;;;5075009;28;20025;-33
2022/09/05 11:40:43;;;;;;;0.88;0.85;;;28.40;43.40;;;;;;5074778;28;20022;-27
2022/09/05 11:43:12;;;;;;;2.00;1.02;;;28.40;43.10;;;;;;5074865;28;20373;-28
2022/09/05 11:45:56;;;;;;;3.72;1.05;;;28.40;42.90;;;;;;5074613;28;20097;-26
2022/09/05 11:48:59;;;;;;;2.22;1.02;;;28.50;43.00;;;;;;5075011;28;20541;-29
2022/09/05 11:52:02;;;;;;;1.35;1.08;;;28.70;43.00;;;;;;5074670;28;20029;-33
2022/09/05 11:55:07;;;;;;;1.83;0.90;;;28.80;42.90;;;;;;5074745;28;20053;-27
2022/09/05 11:58:05;;;;;;;0.70;0.70;;;28.90;42.80;;;;;;5074888;28;20025;-28
2022/09/05 12:00:43;;;;;;;1.00;1.00;;;29.00;42.80;;;;;;5074529;28;20373;-32
2022/09/05 12:03:36;;;;;;;1.52;1.00;;;29.10;42.70;;;;;;5074813;28;20025;-30
2022/09/05 12:06:16;;;;;;;1.52;0.85;;;29.10;42.20;;;;;;5074940;28;20090;-31
2022/09/05 12:09:00;;;;;;;1.08;0.90;;;29.20;42.10;;;;;;5074692;28;20490;-31
2022/09/05 12:12:20;;;;;;;3.33;1.10;;;29.20;41.70;;;;;;5074255;28;20020;-30
2022/09/05 12:15:15;;;;;;;1.13;1.02;;;29.20;41.50;;;;;;5072195;28;20074;-32
2022/09/05 12:18:09;;;;;;;1.20;1.02;;;29.20;41.30;;;;;;5074405;28;20028;-29
2022/09/05 12:20:57;;;;;;;2.70;1.35;;;29.20;41.40;;;;;;5074217;28;20372;-27
2022/09/05 12:23:32;;;;;;;0.88;0.88;;;29.30;41.30;;;;;;5074048;28;20037;-30
2022/09/05 12:26:20;;;;;;;1.10;0.90;;;29.40;41.20;;;;;;5074292;28;20029;-30
2022/09/05 12:28:56;;;;;;;1.25;0.77;;;29.50;40.90;;;;;;5073975;28;20031;-27
2022/09/05 12:31:37;;;;;;;1.15;0.88;;;29.50;40.60;;;;;;5074333;28;20066;-32
2022/09/05 12:34:08;;;;;;;1.30;0.88;;;29.50;40.60;;;;;;5074280;28;20116;-28
2022/09/05 12:36:41;;;;;;;0.95;0.75;;;29.60;40.60;;;;;;5074010;28;20021;-31
2022/09/05 12:39:44;;;;;;;1.10;1.00;;;29.70;40.60;;;;;;5074352;28;20502;-29
2022/09/05 12:42:38;;;;;;;1.42;0.77;;;29.80;40.40;;;;;;5074165;28;20129;-30
2022/09/05 12:45:46;;;;;;;2.13;0.90;;;30.00;40.20;;;;;;5073862;28;20063;-28
2022/09/05 12:48:20;;;;;;;1.10;0.80;;;30.10;40.10;;;;;;5072832;28;20041;-31
2022/09/05 12:51:18;;;;;;;1.25;1.02;;;30.10;39.90;;;;;;5073580;28;20537;-30
2022/09/05 12:53:48;;;;;;;0.80;0.80;;;30.20;39.60;;;;;;5073872;28;20028;-29
2022/09/05 12:56:39;;;;;;;0.93;0.80;;;30.30;39.60;;;;;;5072149;28;20020;-27
2022/09/05 12:59:13;;;;;;;1.25;0.65;;;30.30;39.30;;;;;;5072798;28;20125;-29
2022/09/05 13:01:42;;;;;;;0.85;0.80;;;30.40;39.30;;;;;;5073624;28;20111;-28
2022/09/05 13:04:20;;;;;;;1.10;1.00;;;30.50;38.80;;;;;;5073519;28;20063;-31
2022/09/05 13:06:57;;;;;;;0.90;0.75;;;30.50;38.40;;;;;;5073726;28;20025;-28
2022/09/05 13:09:33;;;;;;;2.08;0.70;;;30.50;38.20;;;;;;5073401;28;20024;-29
2022/09/05 13:12:18;;;;;;;0.85;0.80;;;30.50;38.30;;;;;;5073819;28;20020;-28
2022/09/05 13:15:04;;;;;;;0.70;0.70;;;30.50;38.30;;;;;;5073668;28;20016;-29
2022/09/05 13:17:37;;;;;;;0.68;0.60;;;30.60;38.30;;;;;;5073804;28;20029;-28
2022/09/05 13:20:14;;;;;;;0.70;0.70;;;30.70;38.20;;;;;;5073371;28;20025;-29
2022/09/05 13:22:42;;;;;;;1.20;0.90;;;30.80;38.00;;;;;;5073212;28;20040;-28
2022/09/05 13:25:16;;;;;;;2.25;0.70;;;30.90;37.90;;;;;;5073480;28;20017;-32
2022/09/05 13:27:55;;;;;;;2.70;0.90;;;31.00;37.60;;;;;;5072466;28;20040;-34
2022/09/05 13:30:24;;;;;;;1.92;0.70;;;31.00;37.60;;;;;;5073562;28;20396;-28
2022/09/05 13:32:52;;;;;;;1.00;0.70;;;31.00;37.40;;;;;;5073471;28;20036;-31
2022/09/05 13:35:35;;;;;;;1.17;0.90;;;31.10;37.30;;;;;;5073117;28;20028;-34
2022/09/05 13:38:15;;;;;;;0.75;0.70;;;31.20;37.30;;;;;;5073554;28;20044;-32
2022/09/05 13:40:47;;;;;;;1.10;0.90;;;31.40;37.10;;;;;;5073340;28;20047;-30
2022/09/05 13:43:20;;;;;;;0.93;0.83;;;31.50;37.10;;;;;;5072985;28;20020;-29
2022/09/05 13:46:05;;;;;;;0.95;0.82;;;31.50;36.80;;;;;;5072745;28;20036;-28
2022/09/05 13:48:55;;;;;;;1.08;0.90;;;31.60;36.60;;;;;;5073714;28;20387;-31
2022/09/05 13:51:35;;;;;;;2.35;1.33;;;31.70;36.40;;;;;;5073293;28;20020;-29
2022/09/05 13:54:26;;;;;;;1.13;0.85;;;31.80;36.40;;;;;;5072815;28;20033;-28
2022/09/05 13:57:15;;;;;;;1.17;0.75;;;31.90;36.20;;;;;;5072837;28;20028;-29
2022/09/05 14:00:16;;;;;;;1.85;0.90;;;32.00;36.00;;;;;;5072863;28;20027;-34
2022/09/05 14:03:01;;;;;;;0.60;0.60;;;32.10;35.70;;;;;;5072675;28;20060;-29
2022/09/05 14:05:37;;;;;;;1.08;0.68;;;32.10;35.90;;;;;;5072713;28;20028;-28
2022/09/05 14:08:18;;;;;;;0.98;0.70;;;32.00;35.80;;;;;;5072889;28;20028;-30
2022/09/05 14:10:46;;;;;;;0.80;0.80;;;32.20;36.10;;;;;;5072678;28;20468;-30
2022/09/05 14:13:26;;;;;;;1.60;0.90;;;32.30;35.80;;;;;;5072564;28;20070;-30